createdAt,value
2022-12-19T00:01:35.570Z,3.70
2022-12-19T00:04:08.430Z,2.40
2022-12-19T00:06:37.764Z,2.40
2022-12-19T00:09:05.627Z,2.30
2022-12-19T00:11:33.038Z,2.40
2022-12-19T00:14:00.333Z,2.50
2022-12-19T00:16:29.756Z,2.60
2022-12-19T00:18:59.434Z,2.60
2022-12-19T00:21:30.627Z,2.60
2022-12-19T00:23:58.221Z,2.60
2022-12-19T00:26:30.748Z,2.40
2022-12-19T00:29:00.010Z,2.40
2022-12-19T00:31:31.092Z,2.40
2022-12-19T00:33:57.960Z,2.40
2022-12-19T00:36:27.534Z,2.40
2022-12-19T00:38:56.685Z,2.40
2022-12-19T00:41:32.318Z,2.50
2022-12-19T00:44:01.799Z,2.50
2022-12-19T00:46:29.551Z,2.60
2022-12-19T00:48:56.229Z,2.60
2022-12-19T00:51:26.062Z,2.60
2022-12-19T00:53:54.493Z,2.60
2022-12-19T00:56:24.183Z,2.50
2022-12-19T00:58:50.990Z,2.50
2022-12-19T01:01:31.240Z,2.60
2022-12-19T01:04:27.292Z,2.60
2022-12-19T01:06:46.175Z,2.70
2022-12-19T01:09:13.859Z,2.70
2022-12-19T01:11:59.511Z,2.60
2022-12-19T01:14:26.292Z,2.60
2022-12-19T01:16:53.251Z,2.50
2022-12-19T01:19:20.431Z,2.40
2022-12-19T01:21:47.199Z,2.60
2022-12-19T01:24:16.320Z,2.60
2022-12-19T01:26:46.585Z,2.60
2022-12-19T01:29:13.305Z,2.50
2022-12-19T01:31:40.086Z,2.60
2022-12-19T01:34:06.876Z,3.20
2022-12-19T01:36:34.765Z,2.50
2022-12-19T01:39:07.167Z,2.50
2022-12-19T01:41:34.040Z,2.60
2022-12-19T01:44:05.919Z,2.60
2022-12-19T01:46:39.927Z,2.60
2022-12-19T01:49:15.938Z,2.70
2022-12-19T01:51:47.669Z,2.60
2022-12-19T01:54:22.546Z,2.60
2022-12-19T01:56:53.291Z,2.60
2022-12-19T01:59:26.567Z,2.60
2022-12-19T02:02:00.677Z,2.60
2022-12-19T02:04:32.362Z,2.70
2022-12-19T02:07:09.337Z,2.60
2022-12-19T02:09:51.910Z,2.70
2022-12-19T02:12:25.675Z,2.70
2022-12-19T02:14:54.355Z,2.70
2022-12-19T02:17:40.948Z,2.70
2022-12-19T02:20:23.896Z,2.80
2022-12-19T02:23:19.164Z,2.90
2022-12-19T02:25:56.760Z,2.90
2022-12-19T02:28:56.203Z,2.80
2022-12-19T02:31:31.207Z,2.80
2022-12-19T02:34:09.843Z,2.90
2022-12-19T02:37:12.039Z,2.90
2022-12-19T02:39:56.588Z,2.90
2022-12-19T02:42:31.846Z,2.90
2022-12-19T02:45:00.792Z,2.90
2022-12-19T02:47:29.938Z,2.90
2022-12-19T02:49:56.759Z,3.00
2022-12-19T02:52:23.490Z,2.80
2022-12-19T02:54:56.127Z,2.80
2022-12-19T02:57:33.688Z,2.80
2022-12-19T03:00:05.864Z,2.80
2022-12-19T03:02:41.837Z,2.90
2022-12-19T03:05:25.014Z,3.00
2022-12-19T03:08:20.941Z,3.00
2022-12-19T03:11:02.081Z,3.00
2022-12-19T03:13:37.636Z,3.00
2022-12-19T03:16:07.134Z,3.00
2022-12-19T03:18:34.232Z,3.10
2022-12-19T03:21:18.045Z,3.10
2022-12-19T03:23:46.635Z,3.00
2022-12-19T03:26:18.349Z,3.10
2022-12-19T03:29:06.966Z,3.10
2022-12-19T03:31:34.855Z,3.10
2022-12-19T03:34:08.800Z,3.10
2022-12-19T03:36:46.191Z,3.20
2022-12-19T03:39:14.751Z,3.10
2022-12-19T03:42:02.885Z,3.20
2022-12-19T03:44:35.415Z,3.60
2022-12-19T03:47:09.239Z,3.20
2022-12-19T03:49:36.786Z,3.20
2022-12-19T03:52:16.923Z,3.30
2022-12-19T03:54:54.810Z,3.30
2022-12-19T03:57:32.438Z,3.30
2022-12-19T04:00:06.568Z,3.30
2022-12-19T04:02:38.260Z,3.30
2022-12-19T04:05:09.286Z,1.60
2022-12-19T04:07:37.989Z,3.30
2022-12-19T04:10:07.929Z,3.70
2022-12-19T04:12:41.823Z,3.50
2022-12-19T04:15:09.400Z,3.50
2022-12-19T04:17:55.764Z,3.40
2022-12-19T04:20:27.026Z,3.50
2022-12-19T04:23:05.925Z,3.50
2022-12-19T04:25:37.703Z,3.40
2022-12-19T04:28:13.630Z,3.60
2022-12-19T04:30:42.595Z,3.40
2022-12-19T04:33:09.366Z,3.40
2022-12-19T04:35:36.657Z,3.40
2022-12-19T04:38:04.179Z,3.40
2022-12-19T04:40:31.303Z,3.50
2022-12-19T04:42:58.559Z,3.40
2022-12-19T04:45:25.366Z,3.40
2022-12-19T04:47:52.436Z,3.40
2022-12-19T04:50:19.190Z,3.40
2022-12-19T04:52:45.881Z,3.40
2022-12-19T04:55:12.599Z,3.50
2022-12-19T04:57:39.326Z,3.60
2022-12-19T05:00:08.594Z,3.60
2022-12-19T05:02:37.744Z,3.50
2022-12-19T05:05:04.911Z,3.50
2022-12-19T05:07:31.687Z,3.60
2022-12-19T05:09:58.355Z,3.60
2022-12-19T05:12:25.433Z,3.60
2022-12-19T05:14:52.251Z,3.70
2022-12-19T05:17:19.113Z,3.70
2022-12-19T05:19:45.782Z,3.60
2022-12-19T05:22:12.563Z,3.70
2022-12-19T05:24:39.333Z,3.60
2022-12-19T05:27:06.081Z,3.70
2022-12-19T05:29:32.903Z,3.70
2022-12-19T05:32:00.290Z,3.70
2022-12-19T05:34:27.018Z,3.80
2022-12-19T05:36:53.842Z,3.70
2022-12-19T05:39:20.619Z,3.70
2022-12-19T05:41:49.161Z,3.70
2022-12-19T05:44:16.868Z,3.80
2022-12-19T05:46:43.707Z,3.90
2022-12-19T05:49:10.616Z,3.90
2022-12-19T05:51:37.671Z,3.80
2022-12-19T05:54:04.624Z,3.80
2022-12-19T05:56:31.464Z,3.80
2022-12-19T05:58:58.233Z,3.80
2022-12-19T06:01:27.041Z,3.80
2022-12-19T06:03:55.106Z,3.80
2022-12-19T06:06:24.913Z,3.80
2022-12-19T06:08:59.423Z,3.80
2022-12-19T06:11:27.216Z,3.80
2022-12-19T06:13:54.201Z,3.90
2022-12-19T06:16:22.455Z,3.80
2022-12-19T06:18:50.663Z,3.80
2022-12-19T06:21:19.775Z,4.00
2022-12-19T06:23:47.409Z,3.90
2022-12-19T06:26:19.422Z,3.90
2022-12-19T06:28:48.178Z,3.90
2022-12-19T06:31:15.332Z,3.80
2022-12-19T06:33:42.330Z,3.90
2022-12-19T06:36:24.030Z,3.80
2022-12-19T06:38:51.391Z,3.90
2022-12-19T06:41:38.320Z,3.90
2022-12-19T06:44:07.515Z,4.00
2022-12-19T06:46:35.412Z,3.90
2022-12-19T06:49:02.759Z,4.40
2022-12-19T06:51:29.966Z,4.00
2022-12-19T06:53:56.966Z,4.10
2022-12-19T06:56:23.870Z,5.90
2022-12-19T06:58:51.232Z,4.20
2022-12-19T07:01:30.610Z,4.40
2022-12-19T07:03:57.550Z,4.30
2022-12-19T07:06:24.426Z,4.40
2022-12-19T07:08:51.228Z,4.30
2022-12-19T07:11:18.012Z,4.30
2022-12-19T07:13:44.764Z,4.20
2022-12-19T07:16:11.627Z,4.20
2022-12-19T07:18:40.321Z,4.10
2022-12-19T07:21:11.252Z,4.20
2022-12-19T07:23:38.687Z,4.10
2022-12-19T07:26:05.750Z,4.20
2022-12-19T07:28:34.794Z,4.20
2022-12-19T07:31:01.558Z,4.30
2022-12-19T07:33:28.304Z,4.20
2022-12-19T07:35:55.532Z,4.20
2022-12-19T07:38:22.313Z,4.30
2022-12-19T07:40:48.990Z,4.30
2022-12-19T07:43:15.893Z,4.30
2022-12-19T07:45:42.910Z,4.30
2022-12-19T07:48:10.161Z,4.40
2022-12-19T07:50:37.237Z,4.40
2022-12-19T07:53:04.117Z,4.40
2022-12-19T07:55:31.544Z,4.50
2022-12-19T07:57:59.697Z,5.60
2022-12-19T08:00:26.525Z,4.60
2022-12-19T08:02:53.442Z,4.50
2022-12-19T08:05:20.631Z,4.50
2022-12-19T08:07:47.487Z,4.80
2022-12-19T08:10:15.163Z,4.50
2022-12-19T08:12:42.318Z,4.60
2022-12-19T08:15:09.847Z,4.60
2022-12-19T08:17:41.341Z,4.70
2022-12-19T08:20:11.706Z,4.70
2022-12-19T08:22:38.626Z,4.60
2022-12-19T08:25:07.559Z,4.60
2022-12-19T08:27:35.127Z,4.60
2022-12-19T08:30:02.530Z,5.70
2022-12-19T08:32:29.589Z,4.70
2022-12-19T08:34:56.743Z,4.70
2022-12-19T08:37:23.700Z,4.70
2022-12-19T08:39:50.757Z,4.70
2022-12-19T08:42:17.712Z,4.70
2022-12-19T08:44:44.703Z,4.80
2022-12-19T08:47:11.493Z,4.80
2022-12-19T08:49:38.230Z,4.90
2022-12-19T08:52:04.955Z,5.00
2022-12-19T08:54:31.730Z,5.10
2022-12-19T08:56:58.809Z,5.20
2022-12-19T08:59:30.955Z,5.20
2022-12-19T09:02:00.650Z,5.20
2022-12-19T09:05:43.717Z,5.40
2022-12-19T09:07:16.166Z,5.40
2022-12-19T09:09:45.251Z,5.40
2022-12-19T09:12:14.262Z,5.40
2022-12-19T09:14:41.296Z,5.40
2022-12-19T09:17:08.831Z,5.40
2022-12-19T09:19:35.680Z,5.40
2022-12-19T09:22:02.766Z,5.30
2022-12-19T09:24:29.608Z,5.40
2022-12-19T09:26:56.396Z,5.40
2022-12-19T09:29:24.097Z,5.40
2022-12-19T09:31:55.633Z,5.30
2022-12-19T09:34:38.145Z,5.40
2022-12-19T09:37:07.885Z,5.40
2022-12-19T09:39:36.212Z,5.40
2022-12-19T09:42:26.377Z,5.40
2022-12-19T09:45:05.949Z,5.40
2022-12-19T09:47:39.195Z,5.50
2022-12-19T09:50:23.190Z,5.50
2022-12-19T09:52:59.682Z,5.50
2022-12-19T09:55:35.594Z,5.50
2022-12-19T09:58:08.108Z,5.60
2022-12-19T10:00:49.028Z,5.60
2022-12-19T10:03:29.328Z,5.70
2022-12-19T10:06:51.775Z,5.70
2022-12-19T10:10:36.281Z,5.70
2022-12-19T10:12:45.911Z,5.70
2022-12-19T10:14:56.907Z,5.80
2022-12-19T10:17:42.925Z,6.20
2022-12-19T10:20:21.817Z,5.80
2022-12-19T10:23:00.617Z,5.90
2022-12-19T10:25:54.310Z,5.90
2022-12-19T10:28:46.051Z,5.90
2022-12-19T10:31:40.669Z,5.90
2022-12-19T10:34:25.133Z,6.00
2022-12-19T10:40:01.668Z,6.00
2022-12-19T10:42:56.271Z,6.00
2022-12-19T10:45:32.823Z,6.10
2022-12-19T10:47:59.994Z,6.10
2022-12-19T10:50:29.881Z,6.20
2022-12-19T10:53:08.178Z,6.20
2022-12-19T10:55:46.665Z,6.30
2022-12-19T10:58:32.571Z,6.30
2022-12-19T11:01:15.710Z,6.40
2022-12-19T11:03:46.504Z,6.40
2022-12-19T11:06:38.447Z,7.30
2022-12-19T11:09:31.181Z,6.30
2022-12-19T11:13:07.415Z,6.30
2022-12-19T11:20:35.616Z,6.40
2022-12-19T11:20:42.860Z,6.40
2022-12-19T11:29:25.861Z,6.50
2022-12-19T11:30:09.509Z,6.50
2022-12-19T11:30:43.938Z,6.40
2022-12-19T11:32:42.976Z,6.50
2022-12-19T11:35:25.349Z,6.50
2022-12-19T11:38:06.071Z,6.40
2022-12-19T11:40:49.466Z,6.50
2022-12-19T11:43:55.312Z,6.60
2022-12-19T11:46:40.923Z,6.40
2022-12-19T11:49:28.532Z,7.90
2022-12-19T11:52:23.742Z,6.40
2022-12-19T11:55:15.761Z,6.40
2022-12-19T11:57:42.891Z,6.50
2022-12-19T12:00:16.289Z,6.50
2022-12-19T12:03:04.846Z,6.50
2022-12-19T12:05:46.756Z,6.60
2022-12-19T12:12:25.788Z,6.50
2022-12-19T12:19:39.128Z,6.70
2022-12-19T12:24:05.016Z,6.60
2022-12-19T12:30:59.451Z,6.60
2022-12-19T12:31:16.209Z,6.60
2022-12-19T12:31:20.597Z,6.60
2022-12-19T12:31:48.725Z,6.60
2022-12-19T12:31:48.870Z,6.60
2022-12-19T12:35:51.820Z,6.60
2022-12-19T12:37:54.075Z,6.50
2022-12-19T12:38:45.960Z,6.60
2022-12-19T12:41:43.632Z,6.70
2022-12-19T12:44:12.440Z,6.10
2022-12-19T12:47:15.406Z,7.50
2022-12-19T12:49:45.920Z,6.80
2022-12-19T12:52:20.533Z,6.90
2022-12-19T12:54:48.977Z,6.80
2022-12-19T12:57:26.657Z,6.80
2022-12-19T13:00:18.058Z,6.80
2022-12-19T13:02:50.377Z,6.80
2022-12-19T13:05:23.235Z,6.80
2022-12-19T13:07:54.809Z,6.80
2022-12-19T13:10:30.580Z,6.80
2022-12-19T13:13:42.555Z,6.80
2022-12-19T13:16:48.784Z,6.80
2022-12-19T13:19:30.880Z,6.80
2022-12-19T13:22:35.852Z,6.90
2022-12-19T13:25:02.813Z,6.90
2022-12-19T13:27:38.502Z,7.50
2022-12-19T13:30:12.602Z,6.90
2022-12-19T13:32:39.565Z,6.90
2022-12-19T13:36:29.618Z,6.90
2022-12-19T13:39:54.164Z,7.10
2022-12-19T13:41:59.558Z,7.00
2022-12-19T13:44:27.143Z,7.80
2022-12-19T13:46:55.979Z,7.00
2022-12-19T13:49:32.956Z,6.90
2022-12-19T13:52:04.587Z,7.10
2022-12-19T13:54:37.119Z,7.00
2022-12-19T13:57:31.812Z,7.00
2022-12-19T14:00:05.705Z,6.90
2022-12-19T14:02:44.733Z,6.90
2022-12-19T14:06:14.526Z,7.40
2022-12-19T14:08:21.824Z,7.00
2022-12-19T14:11:45.785Z,7.00
2022-12-19T14:14:14.975Z,6.90
2022-12-19T14:16:46.519Z,6.90
2022-12-19T14:19:25.021Z,6.90
2022-12-19T14:22:10.784Z,6.90
2022-12-19T14:24:41.401Z,6.90
2022-12-19T14:28:23.279Z,5.80
2022-12-19T14:30:28.110Z,6.90
2022-12-19T14:33:47.501Z,7.80
2022-12-19T14:36:06.823Z,6.80
2022-12-19T14:39:23.439Z,6.90
2022-12-19T14:41:46.729Z,7.00
2022-12-19T14:52:08.674Z,6.90
2022-12-19T14:53:51.636Z,6.90
2022-12-19T14:54:13.314Z,6.90
2022-12-19T14:54:31.033Z,6.90
2022-12-19T14:56:13.690Z,7.00
2022-12-19T14:58:56.011Z,6.90
2022-12-19T15:01:26.942Z,6.90
2022-12-19T15:04:47.988Z,6.90
2022-12-19T15:07:09.985Z,6.90
2022-12-19T15:11:03.132Z,6.90
2022-12-19T15:14:53.425Z,6.80
2022-12-19T15:16:26.597Z,6.80
2022-12-19T15:18:56.933Z,6.70
2022-12-19T15:21:24.149Z,6.80
2022-12-19T15:23:51.039Z,6.70
2022-12-19T15:26:20.610Z,6.80
2022-12-19T15:28:50.168Z,6.70
2022-12-19T15:31:24.312Z,6.80
2022-12-19T15:36:38.263Z,6.70
2022-12-19T15:39:05.555Z,6.70
2022-12-19T15:41:35.732Z,6.60
2022-12-19T15:44:15.668Z,5.90
2022-12-19T15:46:48.471Z,6.60
2022-12-19T15:49:18.074Z,6.50
2022-12-19T15:51:45.829Z,6.60
2022-12-19T15:54:47.267Z,6.60
2022-12-19T15:56:59.596Z,6.60
2022-12-19T15:59:37.504Z,6.50
2022-12-19T16:02:17.180Z,6.50
2022-12-19T16:04:45.761Z,6.50
2022-12-19T16:07:18.234Z,6.40
2022-12-19T16:09:45.293Z,6.40
2022-12-19T16:12:15.767Z,6.50
2022-12-19T16:14:43.311Z,6.40
2022-12-19T16:17:18.005Z,6.40
2022-12-19T16:19:44.885Z,6.40
2022-12-19T16:22:23.829Z,6.30
2022-12-19T16:24:52.039Z,6.30
2022-12-19T16:27:36.685Z,6.60
2022-12-19T16:30:19.259Z,6.20
2022-12-19T16:32:46.367Z,6.20
2022-12-19T16:35:23.896Z,6.10
2022-12-19T16:38:01.138Z,6.10
2022-12-19T16:40:28.063Z,6.00
2022-12-19T16:43:04.544Z,6.00
2022-12-19T16:45:33.579Z,6.00
2022-12-19T16:48:00.705Z,6.00
2022-12-19T16:50:30.920Z,5.90
2022-12-19T16:53:00.946Z,6.20
2022-12-19T16:55:27.765Z,6.00
2022-12-19T16:57:56.521Z,7.60
2022-12-19T17:00:24.454Z,5.90
2022-12-19T17:03:08.609Z,5.90
2022-12-19T17:05:35.590Z,5.80
2022-12-19T17:08:02.337Z,5.70
2022-12-19T17:10:33.796Z,5.80
2022-12-19T17:13:03.275Z,5.80
2022-12-19T17:15:36.787Z,5.70
2022-12-19T17:18:27.236Z,5.80
2022-12-19T17:20:54.156Z,5.70
2022-12-19T17:23:23.270Z,5.80
2022-12-19T17:25:50.419Z,5.70
2022-12-19T17:28:17.336Z,5.70
2022-12-19T17:30:53.963Z,5.70
2022-12-19T17:33:22.816Z,5.60
2022-12-19T17:35:49.782Z,5.60
2022-12-19T17:38:18.021Z,5.60
2022-12-19T17:40:45.526Z,5.50
2022-12-19T17:43:12.935Z,5.60
2022-12-19T17:45:40.727Z,5.60
2022-12-19T17:48:33.195Z,5.60
2022-12-19T17:51:00.243Z,5.60
2022-12-19T17:53:27.023Z,5.60
2022-12-19T17:55:53.872Z,5.50
2022-12-19T17:58:21.659Z,5.70
2022-12-19T18:00:49.874Z,5.70
2022-12-19T18:03:25.604Z,5.80
2022-12-19T18:05:54.596Z,5.70
2022-12-19T18:08:28.587Z,5.90
2022-12-19T18:10:58.479Z,5.70
2022-12-19T18:13:26.723Z,5.70
2022-12-19T18:15:57.202Z,5.70
2022-12-19T18:18:29.089Z,5.60
2022-12-19T18:20:56.976Z,5.60
2022-12-19T18:23:23.994Z,5.60
2022-12-19T18:25:56.088Z,5.70
2022-12-19T18:28:26.203Z,5.70
2022-12-19T18:30:59.500Z,5.50
2022-12-19T18:33:26.460Z,5.50
2022-12-19T18:35:53.271Z,5.50
2022-12-19T18:38:22.914Z,5.70
2022-12-19T18:40:52.036Z,5.50
2022-12-19T18:43:19.552Z,5.60
2022-12-19T18:45:50.454Z,5.50
2022-12-19T18:48:24.016Z,5.50
2022-12-19T18:50:51.101Z,5.40
2022-12-19T18:53:21.696Z,5.40
2022-12-19T18:55:49.102Z,5.30
2022-12-19T18:58:15.827Z,5.30
2022-12-19T19:00:42.652Z,5.30
2022-12-19T19:03:15.442Z,5.40
2022-12-19T19:05:43.031Z,5.40
2022-12-19T19:08:24.870Z,5.40
2022-12-19T19:10:53.838Z,5.40
2022-12-19T19:13:22.450Z,5.50
2022-12-19T19:15:54.835Z,5.40
2022-12-19T19:18:33.794Z,5.40
2022-12-19T19:21:02.428Z,5.40
2022-12-19T19:23:52.300Z,5.40
2022-12-19T19:26:19.129Z,5.40
2022-12-19T19:28:51.686Z,5.40
2022-12-19T19:31:21.418Z,5.50
2022-12-19T19:33:52.544Z,5.40
2022-12-19T19:36:23.335Z,5.50
2022-12-19T19:38:53.667Z,6.10
2022-12-19T19:41:20.719Z,5.60
2022-12-19T19:43:47.433Z,6.00
2022-12-19T19:46:14.340Z,5.40
2022-12-19T19:48:42.665Z,5.20
2022-12-19T19:51:09.788Z,5.30
2022-12-19T19:53:36.540Z,5.40
2022-12-19T19:56:04.984Z,5.40
2022-12-19T19:58:32.205Z,5.40
2022-12-19T20:00:59.465Z,5.30
2022-12-19T20:03:27.336Z,5.40
2022-12-19T20:06:02.105Z,5.50
2022-12-19T20:08:35.203Z,5.40
2022-12-19T20:11:06.014Z,5.40
2022-12-19T20:13:33.173Z,5.40
2022-12-19T20:16:06.614Z,5.40
2022-12-19T20:18:34.151Z,5.40
2022-12-19T20:21:01.021Z,5.40
2022-12-19T20:23:28.205Z,5.40
2022-12-19T20:25:59.889Z,5.40
2022-12-19T20:28:26.745Z,5.40
2022-12-19T20:30:53.587Z,5.40
2022-12-19T20:33:20.428Z,5.30
2022-12-19T20:35:47.160Z,5.30
2022-12-19T20:38:14.054Z,4.40
2022-12-19T20:40:40.747Z,5.30
2022-12-19T20:43:07.595Z,5.30
2022-12-19T20:45:34.483Z,5.40
2022-12-19T20:48:01.432Z,5.40
2022-12-19T20:50:28.272Z,5.40
2022-12-19T20:52:55.754Z,5.40
2022-12-19T20:55:22.649Z,5.40
2022-12-19T20:57:49.504Z,6.50
2022-12-19T21:00:17.986Z,5.40
2022-12-19T21:03:25.908Z,5.40
2022-12-19T21:05:31.657Z,5.40
2022-12-19T21:07:58.381Z,5.40
2022-12-19T21:10:25.117Z,5.40
2022-12-19T21:12:52.004Z,5.30
2022-12-19T21:15:18.954Z,5.30
2022-12-19T21:17:45.775Z,5.30
2022-12-19T21:20:13.743Z,5.40
2022-12-19T21:22:41.100Z,5.40
2022-12-19T21:25:08.540Z,5.40
2022-12-19T21:27:35.302Z,5.40
2022-12-19T21:30:02.036Z,5.40
2022-12-19T21:32:28.928Z,5.40
2022-12-19T21:34:55.661Z,5.50
2022-12-19T21:37:24.357Z,5.40
2022-12-19T21:39:51.144Z,5.30
2022-12-19T21:42:18.094Z,5.40
2022-12-19T21:44:44.924Z,5.40
2022-12-19T21:47:11.922Z,5.50
2022-12-19T21:49:38.918Z,5.50
2022-12-19T21:52:05.718Z,5.50
2022-12-19T21:54:32.622Z,5.50
2022-12-19T21:57:00.165Z,5.40
2022-12-19T21:59:27.257Z,5.60
2022-12-19T22:01:55.107Z,5.60
2022-12-19T22:04:27.488Z,5.50
2022-12-19T22:06:54.590Z,5.50
2022-12-19T22:09:22.960Z,5.50
2022-12-19T22:11:49.858Z,5.50
2022-12-19T22:14:17.730Z,5.50
2022-12-19T22:16:44.776Z,5.60
2022-12-19T22:19:15.016Z,5.60
2022-12-19T22:21:41.854Z,5.60
2022-12-19T22:24:12.383Z,5.60
2022-12-19T22:26:39.275Z,5.60
2022-12-19T22:29:08.763Z,5.50
2022-12-19T22:31:39.037Z,5.50
2022-12-19T22:34:10.334Z,5.50
2022-12-19T22:36:39.795Z,5.60
2022-12-19T22:39:09.769Z,5.70
2022-12-19T22:41:37.285Z,6.00
2022-12-19T22:44:05.273Z,5.50
2022-12-19T22:46:34.927Z,5.50
2022-12-19T22:49:05.105Z,5.40
2022-12-19T22:51:33.555Z,5.50
2022-12-19T22:54:00.729Z,5.50
2022-12-19T22:56:30.396Z,5.50
2022-12-19T22:59:00.914Z,5.50
2022-12-19T23:01:31.051Z,5.60
2022-12-19T23:04:00.090Z,5.30
2022-12-19T23:06:28.659Z,5.50
2022-12-19T23:08:55.761Z,5.50
2022-12-19T23:11:31.928Z,5.50
2022-12-19T23:14:00.495Z,5.60
2022-12-19T23:16:27.766Z,5.50
2022-12-19T23:18:54.727Z,5.60
2022-12-19T23:21:24.436Z,5.60
2022-12-19T23:23:53.249Z,5.60
2022-12-19T23:26:26.442Z,5.70
2022-12-19T23:28:56.877Z,5.70
2022-12-19T23:31:24.256Z,5.60
2022-12-19T23:33:51.679Z,5.60
2022-12-19T23:36:38.031Z,5.60
2022-12-19T23:39:05.642Z,5.60
2022-12-19T23:41:32.477Z,6.30
2022-12-19T23:43:59.372Z,5.70
2022-12-19T23:46:27.460Z,5.70
2022-12-19T23:48:54.337Z,5.60
2022-12-19T23:51:25.226Z,5.60
2022-12-19T23:53:52.977Z,5.60
2022-12-19T23:56:28.199Z,5.60
2022-12-19T23:58:55.405Z,5.60
